createdAt,value
2022-09-13T00:00:52.342Z,17.43
2022-09-13T00:01:52.280Z,17.43
2022-09-13T00:02:52.288Z,17.46
2022-09-13T00:03:52.219Z,17.48
2022-09-13T00:04:52.387Z,17.46
2022-09-13T00:05:52.188Z,17.48
2022-09-13T00:06:52.198Z,17.49
2022-09-13T00:07:52.192Z,17.48
2022-09-13T00:08:52.157Z,17.49
2022-09-13T00:09:52.147Z,17.48
2022-09-13T00:10:52.138Z,17.48
2022-09-13T00:11:52.139Z,17.48
2022-09-13T00:12:52.118Z,17.46
2022-09-13T00:13:52.100Z,17.48
2022-09-13T00:14:52.089Z,17.46
2022-09-13T00:15:52.078Z,17.48
2022-09-13T00:16:52.091Z,17.46
2022-09-13T00:17:52.062Z,17.46
2022-09-13T00:18:52.100Z,17.44
2022-09-13T00:19:52.040Z,17.44
2022-09-13T00:20:52.162Z,17.44
2022-09-13T00:21:52.031Z,17.44
2022-09-13T00:22:52.001Z,17.43
2022-09-13T00:23:51.996Z,17.43
2022-09-13T00:24:51.992Z,17.41
2022-09-13T00:25:51.973Z,17.41
2022-09-13T00:26:52.005Z,17.40
2022-09-13T00:27:51.942Z,17.40
2022-09-13T00:28:52.063Z,17.38
2022-09-13T00:29:51.932Z,17.40
2022-09-13T00:30:51.904Z,17.38
2022-09-13T00:31:51.944Z,17.37
2022-09-13T00:32:51.896Z,17.37
2022-09-13T00:33:51.884Z,17.37
2022-09-13T00:34:51.864Z,17.37
2022-09-13T00:35:51.863Z,17.36
2022-09-13T00:36:52.002Z,17.34
2022-09-13T00:37:51.844Z,17.34
2022-09-13T00:38:51.836Z,17.34
2022-09-13T00:39:51.862Z,17.34
2022-09-13T00:40:51.808Z,17.33
2022-09-13T00:41:51.796Z,17.33
2022-09-13T00:42:51.778Z,17.33
2022-09-13T00:43:51.777Z,17.31
2022-09-13T00:44:51.766Z,17.31
2022-09-13T00:45:51.850Z,17.28
2022-09-13T00:46:51.758Z,17.28
2022-09-13T00:47:51.728Z,17.26
2022-09-13T00:48:51.730Z,17.25
2022-09-13T00:49:51.700Z,17.23
2022-09-13T00:50:51.700Z,17.22
2022-09-13T00:51:51.688Z,17.19
2022-09-13T00:52:51.750Z,17.18
2022-09-13T00:53:51.663Z,17.16
2022-09-13T00:54:51.657Z,17.15
2022-09-13T00:55:51.641Z,17.15
2022-09-13T00:56:51.643Z,17.11
2022-09-13T00:57:51.611Z,17.11
2022-09-13T00:58:51.612Z,17.08
2022-09-13T00:59:51.595Z,17.07
2022-09-13T01:00:51.605Z,17.06
2022-09-13T01:01:51.628Z,17.04
2022-09-13T01:02:51.552Z,17.03
2022-09-13T01:03:51.542Z,17.03
2022-09-13T01:04:51.532Z,17.00
2022-09-13T01:05:51.535Z,17.00
2022-09-13T01:06:51.516Z,16.97
2022-09-13T01:07:51.503Z,16.97
2022-09-13T01:08:51.544Z,16.96
2022-09-13T01:09:51.485Z,16.94
2022-09-13T01:10:51.472Z,16.93
2022-09-13T01:11:51.487Z,16.91
2022-09-13T01:12:51.444Z,16.91
2022-09-13T01:13:51.444Z,16.89
2022-09-13T01:14:51.424Z,16.91
2022-09-13T01:15:51.405Z,16.89
2022-09-13T01:16:51.451Z,16.88
2022-09-13T01:17:51.394Z,16.86
2022-09-13T01:18:51.378Z,16.86
2022-09-13T01:19:51.378Z,16.88
2022-09-13T01:20:51.357Z,16.86
2022-09-13T01:21:51.356Z,16.85
2022-09-13T01:22:51.327Z,16.86
2022-09-13T01:23:51.356Z,16.85
2022-09-13T01:24:51.308Z,16.86
2022-09-13T01:25:51.308Z,16.86
2022-09-13T01:26:51.298Z,16.86
2022-09-13T01:27:51.288Z,16.86
2022-09-13T01:28:51.264Z,16.86
2022-09-13T01:29:51.259Z,16.88
2022-09-13T01:30:51.240Z,16.88
2022-09-13T01:31:51.286Z,16.88
2022-09-13T01:32:51.240Z,16.88
2022-09-13T01:33:51.210Z,16.88
2022-09-13T01:34:51.198Z,16.88
2022-09-13T01:35:51.192Z,16.89
2022-09-13T01:36:51.206Z,16.91
2022-09-13T01:37:51.183Z,16.91
2022-09-13T01:38:51.152Z,16.93
2022-09-13T01:39:51.237Z,16.94
2022-09-13T01:40:51.136Z,16.94
2022-09-13T01:41:51.122Z,16.97
2022-09-13T01:42:51.116Z,16.98
2022-09-13T01:43:51.111Z,17.00
2022-09-13T01:44:51.089Z,17.01
2022-09-13T01:45:51.126Z,17.01
2022-09-13T01:46:51.072Z,17.03
2022-09-13T01:47:51.085Z,17.04
2022-09-13T01:48:51.050Z,17.06
2022-09-13T01:49:51.044Z,17.06
2022-09-13T01:50:51.015Z,17.07
2022-09-13T01:51:51.015Z,17.11
2022-09-13T01:52:51.007Z,17.11
2022-09-13T01:53:51.001Z,17.12
2022-09-13T01:54:50.977Z,17.14
2022-09-13T01:55:50.976Z,17.14
2022-09-13T01:56:50.956Z,17.14
2022-09-13T01:57:50.956Z,17.15
2022-09-13T01:58:50.937Z,17.16
2022-09-13T01:59:50.928Z,17.18
2022-09-13T02:00:51.024Z,17.18
2022-09-13T02:01:50.959Z,17.19
2022-09-13T02:02:50.919Z,17.19
2022-09-13T02:03:50.885Z,17.21
2022-09-13T02:04:50.869Z,17.21
2022-09-13T02:05:50.878Z,17.22
2022-09-13T02:06:50.877Z,17.22
2022-09-13T02:07:50.849Z,17.25
2022-09-13T02:08:50.819Z,17.23
2022-09-13T02:09:50.819Z,17.23
2022-09-13T02:10:50.844Z,17.23
2022-09-13T02:11:50.804Z,17.25
2022-09-13T02:12:50.791Z,17.25
2022-09-13T02:13:50.790Z,17.25
2022-09-13T02:14:50.766Z,17.23
2022-09-13T02:15:50.765Z,17.25
2022-09-13T02:16:50.779Z,17.23
2022-09-13T02:17:50.752Z,17.22
2022-09-13T02:18:50.711Z,17.22
2022-09-13T02:19:50.711Z,17.21
2022-09-13T02:20:50.840Z,17.21
2022-09-13T02:21:50.691Z,17.22
2022-09-13T02:22:50.763Z,17.21
2022-09-13T02:23:50.665Z,17.21
2022-09-13T02:24:50.654Z,17.21
2022-09-13T02:25:50.644Z,17.21
2022-09-13T02:26:50.645Z,17.19
2022-09-13T02:27:50.615Z,17.19
2022-09-13T02:28:50.598Z,17.19
2022-09-13T02:29:50.597Z,17.21
2022-09-13T02:30:50.574Z,17.18
2022-09-13T02:31:50.648Z,17.18
2022-09-13T02:32:50.557Z,17.18
2022-09-13T02:33:50.547Z,17.18
2022-09-13T02:34:50.536Z,17.16
2022-09-13T02:35:50.537Z,17.16
2022-09-13T02:36:50.528Z,17.18
2022-09-13T02:37:50.536Z,17.16
2022-09-13T02:38:50.528Z,17.16
2022-09-13T02:39:50.564Z,17.16
2022-09-13T02:40:50.469Z,17.16
2022-09-13T02:41:50.478Z,17.15
2022-09-13T02:42:50.440Z,17.15
2022-09-13T02:43:50.439Z,17.15
2022-09-13T02:44:50.432Z,17.16
2022-09-13T02:45:50.471Z,17.15
2022-09-13T02:46:50.408Z,17.15
2022-09-13T02:47:50.410Z,17.16
2022-09-13T02:48:50.383Z,17.16
2022-09-13T02:49:50.381Z,17.16
2022-09-13T02:50:50.361Z,17.16
2022-09-13T02:51:50.362Z,17.15
2022-09-13T02:52:50.340Z,17.16
2022-09-13T02:53:50.336Z,17.18
2022-09-13T02:54:50.318Z,17.18
2022-09-13T02:55:50.314Z,17.18
2022-09-13T02:56:50.305Z,17.19
2022-09-13T02:57:50.306Z,17.18
2022-09-13T02:58:50.273Z,17.19
2022-09-13T02:59:50.273Z,17.19
2022-09-13T03:00:50.294Z,17.19
2022-09-13T03:01:50.295Z,17.19
2022-09-13T03:02:50.224Z,17.21
2022-09-13T03:03:50.224Z,17.22
2022-09-13T03:04:50.228Z,17.21
2022-09-13T03:05:50.195Z,17.23
2022-09-13T03:06:50.193Z,17.23
2022-09-13T03:07:50.186Z,17.22
2022-09-13T03:08:50.167Z,17.25
2022-09-13T03:09:50.157Z,17.25
2022-09-13T03:10:50.176Z,17.25
2022-09-13T03:11:50.166Z,17.26
2022-09-13T03:12:50.117Z,17.25
2022-09-13T03:13:50.117Z,17.26
2022-09-13T03:14:50.098Z,17.26
2022-09-13T03:15:50.108Z,17.26
2022-09-13T03:16:50.164Z,17.28
2022-09-13T03:17:50.068Z,17.28
2022-09-13T03:18:50.052Z,17.30
2022-09-13T03:19:50.040Z,17.30
2022-09-13T03:20:50.037Z,17.28
2022-09-13T03:21:50.033Z,17.28
2022-09-13T03:22:50.010Z,17.28
2022-09-13T03:23:50.011Z,17.30
2022-09-13T03:24:49.984Z,17.30
2022-09-13T03:25:49.980Z,17.30
2022-09-13T03:26:49.974Z,17.30
2022-09-13T03:27:49.951Z,17.28
2022-09-13T03:28:49.976Z,17.28
2022-09-13T03:29:49.936Z,17.30
2022-09-13T03:30:49.914Z,17.28
2022-09-13T03:31:50.017Z,17.28
2022-09-13T03:32:49.892Z,17.30
2022-09-13T03:33:49.883Z,17.28
2022-09-13T03:34:49.884Z,17.30
2022-09-13T03:35:49.864Z,17.30
2022-09-13T03:36:49.873Z,17.31
2022-09-13T03:37:49.853Z,17.30
2022-09-13T03:38:49.880Z,17.30
2022-09-13T03:39:49.884Z,17.31
2022-09-13T03:40:49.817Z,17.30
2022-09-13T03:41:49.816Z,17.31
2022-09-13T03:42:49.799Z,17.31
2022-09-13T03:43:49.786Z,17.31
2022-09-13T03:44:49.767Z,17.33
2022-09-13T03:45:49.805Z,17.31
2022-09-13T03:46:49.756Z,17.31
2022-09-13T03:47:49.738Z,17.33
2022-09-13T03:48:49.790Z,17.33
2022-09-13T03:49:49.718Z,17.33
2022-09-13T03:50:49.706Z,17.33
2022-09-13T03:51:49.698Z,17.34
2022-09-13T03:52:49.679Z,17.33
2022-09-13T03:53:49.678Z,17.31
2022-09-13T03:54:49.650Z,17.31
2022-09-13T03:55:49.659Z,17.31
2022-09-13T03:56:49.662Z,17.31
2022-09-13T03:57:49.640Z,17.31
2022-09-13T03:58:49.648Z,17.31
2022-09-13T03:59:49.614Z,17.31
2022-09-13T04:00:49.646Z,17.33
2022-09-13T04:01:49.633Z,17.31
2022-09-13T04:02:49.571Z,17.30
2022-09-13T04:03:52.299Z,17.31
2022-09-13T04:04:50.560Z,17.30
2022-09-13T04:05:49.547Z,17.31
2022-09-13T04:06:49.551Z,17.31
2022-09-13T04:07:49.533Z,17.33
2022-09-13T04:08:49.785Z,17.31
2022-09-13T04:09:49.504Z,17.33
2022-09-13T04:10:49.483Z,17.33
2022-09-13T04:11:49.504Z,17.34
2022-09-13T04:12:49.457Z,17.33
2022-09-13T04:13:49.680Z,17.34
2022-09-13T04:14:49.504Z,17.34
2022-09-13T04:15:49.424Z,17.34
2022-09-13T04:16:49.459Z,17.31
2022-09-13T04:17:49.407Z,17.34
2022-09-13T04:18:49.389Z,17.31
2022-09-13T04:19:49.386Z,17.31
2022-09-13T04:20:49.367Z,17.30
2022-09-13T04:21:49.371Z,17.31
2022-09-13T04:22:49.347Z,17.28
2022-09-13T04:23:49.346Z,17.28
2022-09-13T04:24:49.337Z,17.26
2022-09-13T04:25:49.330Z,17.25
2022-09-13T04:26:49.319Z,17.23
2022-09-13T04:27:49.297Z,17.22
2022-09-13T04:28:49.516Z,17.22
2022-09-13T04:29:49.289Z,17.21
2022-09-13T04:30:49.259Z,17.19
2022-09-13T04:31:49.317Z,17.19
2022-09-13T04:32:49.239Z,17.18
2022-09-13T04:33:49.230Z,17.18
2022-09-13T04:34:49.219Z,17.16
2022-09-13T04:35:49.210Z,17.15
2022-09-13T04:36:49.214Z,17.15
2022-09-13T04:37:49.202Z,17.12
2022-09-13T04:38:49.307Z,17.11
2022-09-13T04:39:49.210Z,17.12
2022-09-13T04:40:49.152Z,17.08
2022-09-13T04:41:49.162Z,17.07
2022-09-13T04:42:49.123Z,17.08
2022-09-13T04:43:49.123Z,17.07
2022-09-13T04:44:49.123Z,17.06
2022-09-13T04:45:49.144Z,17.06
2022-09-13T04:46:49.103Z,17.06
2022-09-13T04:47:49.096Z,17.03
2022-09-13T04:48:49.128Z,17.04
2022-09-13T04:49:49.079Z,17.03
2022-09-13T04:50:49.048Z,17.01
2022-09-13T04:51:49.045Z,17.01
2022-09-13T04:52:49.017Z,17.01
2022-09-13T04:53:49.015Z,17.01
2022-09-13T04:54:48.996Z,17.01
2022-09-13T04:55:49.005Z,17.01
2022-09-13T04:56:49.007Z,17.01
2022-09-13T04:57:48.967Z,17.01
2022-09-13T04:58:49.010Z,17.00
2022-09-13T04:59:48.986Z,17.00
2022-09-13T05:00:48.970Z,17.00
2022-09-13T05:01:49.048Z,17.00
2022-09-13T05:02:48.908Z,16.98
2022-09-13T05:03:48.898Z,17.00
2022-09-13T05:04:48.899Z,17.00
2022-09-13T05:05:48.889Z,16.98
2022-09-13T05:06:48.891Z,17.00
2022-09-13T05:07:48.861Z,16.98
2022-09-13T05:08:49.011Z,16.98
2022-09-13T05:09:50.538Z,16.98
2022-09-13T05:10:50.188Z,16.98
2022-09-13T05:11:49.890Z,17.00
2022-09-13T05:12:49.352Z,16.98
2022-09-13T05:13:49.005Z,16.98
2022-09-13T05:14:50.145Z,16.98
2022-09-13T05:15:49.308Z,16.97
2022-09-13T05:16:49.505Z,17.00
2022-09-13T05:17:48.951Z,16.98
2022-09-13T05:18:48.840Z,16.97
2022-09-13T05:19:48.732Z,16.98
2022-09-13T05:20:48.713Z,16.98
2022-09-13T05:21:48.713Z,16.97
2022-09-13T05:22:48.693Z,17.00
2022-09-13T05:23:48.693Z,16.97
2022-09-13T05:24:48.671Z,16.98
2022-09-13T05:25:48.764Z,16.98
2022-09-13T05:26:48.674Z,17.00
2022-09-13T05:27:48.857Z,16.98
2022-09-13T05:28:48.794Z,17.00
2022-09-13T05:29:48.626Z,16.98
2022-09-13T05:30:48.667Z,17.00
2022-09-13T05:31:48.605Z,17.00
2022-09-13T05:32:48.586Z,17.01
2022-09-13T05:33:48.577Z,17.00
2022-09-13T05:34:48.566Z,17.01
2022-09-13T05:35:48.606Z,17.03
2022-09-13T05:36:53.686Z,17.03
2022-09-13T05:37:49.531Z,17.03
2022-09-13T05:38:48.570Z,17.06
2022-09-13T05:40:10.363Z,17.06
2022-09-13T05:40:49.553Z,17.07
2022-09-13T05:41:48.543Z,17.06
2022-09-13T05:42:48.469Z,17.07
2022-09-13T05:43:48.469Z,17.07
2022-09-13T05:44:48.449Z,17.11
2022-09-13T05:45:48.476Z,17.12
2022-09-13T05:46:48.606Z,17.12
2022-09-13T05:47:48.420Z,17.14
2022-09-13T05:48:48.425Z,17.14
2022-09-13T05:50:08.789Z,17.15
2022-09-13T05:51:04.657Z,17.15
2022-09-13T05:51:49.387Z,17.16
2022-09-13T05:52:48.362Z,17.18
2022-09-13T05:53:48.366Z,17.18
2022-09-13T05:54:48.342Z,17.19
2022-09-13T05:55:48.352Z,17.21
2022-09-13T05:56:48.322Z,17.22
2022-09-13T05:57:48.311Z,17.22
2022-09-13T05:58:48.360Z,17.23
2022-09-13T05:59:48.294Z,17.26
2022-09-13T06:00:48.275Z,17.25
2022-09-13T06:01:48.322Z,17.28
2022-09-13T06:02:48.297Z,17.30
2022-09-13T06:03:48.254Z,17.31
2022-09-13T06:04:48.245Z,17.31
2022-09-13T06:05:48.226Z,17.34
2022-09-13T06:06:48.215Z,17.36
2022-09-13T06:07:48.199Z,17.36
2022-09-13T06:08:48.368Z,17.37
2022-09-13T06:09:48.186Z,17.37
2022-09-13T06:10:48.177Z,17.41
2022-09-13T06:11:48.247Z,17.41
2022-09-13T06:12:48.206Z,17.43
2022-09-13T06:13:48.137Z,17.44
2022-09-13T06:14:48.157Z,17.44
2022-09-13T06:15:48.164Z,17.48
2022-09-13T06:16:48.119Z,17.49
2022-09-13T06:17:48.099Z,17.51
2022-09-13T06:18:48.182Z,17.52
2022-09-13T06:19:48.070Z,17.54
2022-09-13T06:20:48.059Z,17.54
2022-09-13T06:21:48.067Z,17.56
2022-09-13T06:22:48.039Z,17.58
2022-09-13T06:23:48.040Z,17.62
2022-09-13T06:24:48.002Z,17.63
2022-09-13T06:25:48.011Z,17.64
2022-09-13T06:26:48.108Z,17.66
2022-09-13T06:27:50.007Z,17.70
2022-09-13T06:28:48.060Z,17.71
2022-09-13T06:29:47.963Z,17.74
2022-09-13T06:30:47.942Z,17.75
2022-09-13T06:31:48.034Z,17.79
2022-09-13T06:32:47.926Z,17.81
2022-09-13T06:33:47.913Z,17.84
2022-09-13T06:34:47.924Z,17.87
2022-09-13T06:35:47.894Z,17.90
2022-09-13T06:36:47.875Z,17.95
2022-09-13T06:37:47.864Z,17.96
2022-09-13T06:38:47.914Z,17.99
2022-09-13T06:39:47.871Z,18.03
2022-09-13T06:40:47.846Z,18.05
2022-09-13T06:41:47.987Z,18.10
2022-09-13T06:42:47.826Z,18.11
2022-09-13T06:43:47.798Z,18.14
2022-09-13T06:44:47.808Z,18.18
2022-09-13T06:45:47.812Z,18.20
2022-09-13T06:46:47.832Z,18.23
2022-09-13T06:47:47.767Z,18.23
2022-09-13T06:48:47.755Z,18.26
2022-09-13T06:49:47.747Z,18.27
2022-09-13T06:50:47.729Z,18.29
2022-09-13T06:51:47.711Z,18.30
2022-09-13T06:52:47.739Z,18.33
2022-09-13T06:53:47.702Z,18.35
2022-09-13T06:54:47.704Z,18.37
2022-09-13T06:55:47.674Z,18.41
2022-09-13T06:56:47.661Z,18.44
2022-09-13T06:57:47.640Z,18.47
2022-09-13T06:58:47.662Z,18.50
2022-09-13T06:59:47.632Z,18.52
2022-09-13T07:00:47.718Z,18.54
2022-09-13T07:01:47.758Z,18.57
2022-09-13T07:02:47.603Z,18.58
2022-09-13T07:03:47.582Z,18.62
2022-09-13T07:04:47.572Z,18.63
2022-09-13T07:05:47.574Z,18.67
2022-09-13T07:06:47.602Z,18.66
2022-09-13T07:07:47.545Z,18.69
2022-09-13T07:08:47.537Z,18.70
2022-09-13T07:09:47.524Z,18.72
2022-09-13T07:10:47.524Z,18.75
2022-09-13T07:11:47.496Z,18.76
2022-09-13T07:12:47.498Z,18.76
2022-09-13T07:13:47.476Z,18.78
2022-09-13T07:14:47.481Z,18.81
2022-09-13T07:15:47.473Z,18.82
2022-09-13T07:16:47.450Z,18.82
2022-09-13T07:17:47.440Z,18.85
2022-09-13T07:18:47.419Z,18.87
2022-09-13T07:19:47.409Z,18.90
2022-09-13T07:20:47.408Z,18.92
2022-09-13T07:21:47.378Z,18.94
2022-09-13T07:22:47.381Z,18.98
2022-09-13T07:23:47.359Z,19.00
2022-09-13T07:24:47.360Z,19.02
2022-09-13T07:25:47.352Z,19.08
2022-09-13T07:26:47.332Z,19.16
2022-09-13T07:27:47.348Z,19.18
2022-09-13T07:28:47.321Z,19.18
2022-09-13T07:29:47.314Z,19.19
2022-09-13T07:30:47.346Z,19.19
2022-09-13T07:31:47.263Z,19.19
2022-09-13T07:32:47.253Z,19.21
2022-09-13T07:33:47.275Z,19.22
2022-09-13T07:34:47.234Z,19.26
2022-09-13T07:35:47.244Z,19.32
2022-09-13T07:36:47.316Z,19.37
2022-09-13T07:37:47.214Z,19.39
2022-09-13T07:38:47.195Z,19.47
2022-09-13T07:39:47.255Z,19.59
2022-09-13T07:40:47.223Z,19.76
2022-09-13T07:41:47.241Z,19.88
2022-09-13T07:42:47.148Z,19.96
2022-09-13T07:43:47.137Z,19.99
2022-09-13T07:44:47.297Z,20.02
2022-09-13T07:45:47.126Z,20.03
2022-09-13T07:46:47.289Z,19.99
2022-09-13T07:47:47.089Z,19.94
2022-09-13T07:48:47.118Z,19.88
2022-09-13T07:49:47.129Z,19.84
2022-09-13T07:50:47.069Z,19.84
2022-09-13T07:51:47.052Z,19.87
2022-09-13T07:52:47.050Z,19.96
2022-09-13T07:53:47.061Z,19.99
2022-09-13T07:54:47.046Z,20.08
2022-09-13T07:55:47.022Z,20.18
2022-09-13T07:56:47.004Z,20.31
2022-09-13T07:57:47.117Z,20.41
2022-09-13T07:58:47.047Z,20.50
2022-09-13T07:59:46.974Z,20.57
2022-09-13T08:00:46.963Z,20.73
2022-09-13T08:01:47.072Z,20.79
2022-09-13T08:02:46.993Z,20.77
2022-09-13T08:03:46.924Z,20.80
2022-09-13T08:04:46.914Z,20.87
2022-09-13T08:05:46.909Z,20.92
2022-09-13T08:06:47.083Z,21.03
2022-09-13T08:07:46.887Z,21.04
2022-09-13T08:08:46.868Z,21.07
2022-09-13T08:09:46.858Z,21.06
2022-09-13T08:10:49.492Z,20.99
2022-09-13T08:11:46.861Z,20.92
2022-09-13T08:12:46.819Z,20.91
2022-09-13T08:13:46.808Z,20.91
2022-09-13T08:14:46.800Z,20.94
2022-09-13T08:15:46.860Z,20.91
2022-09-13T08:16:46.780Z,20.88
2022-09-13T08:17:46.770Z,20.91
2022-09-13T08:18:46.801Z,20.89
2022-09-13T08:19:46.751Z,20.92
2022-09-13T08:20:46.763Z,20.91
2022-09-13T08:21:46.733Z,20.88
2022-09-13T08:22:46.723Z,20.91
2022-09-13T08:23:46.773Z,20.95
2022-09-13T08:24:46.858Z,21.04
2022-09-13T08:25:46.696Z,21.19
2022-09-13T08:26:46.689Z,21.29
2022-09-13T08:27:46.975Z,21.35
2022-09-13T08:28:46.646Z,21.38
2022-09-13T08:29:46.645Z,21.44
2022-09-13T08:30:46.675Z,21.50
2022-09-13T08:31:46.629Z,21.50
2022-09-13T08:32:46.622Z,21.54
2022-09-13T08:33:47.059Z,21.71
2022-09-13T08:34:46.589Z,21.84
2022-09-13T08:35:46.581Z,21.92
2022-09-13T08:36:46.569Z,21.92
2022-09-13T08:37:46.554Z,21.88
2022-09-13T08:38:46.541Z,21.94
2022-09-13T08:39:46.600Z,22.07
2022-09-13T08:40:46.806Z,22.21
2022-09-13T08:41:46.518Z,22.30
2022-09-13T08:42:46.496Z,22.36
2022-09-13T08:43:46.499Z,22.45
2022-09-13T08:44:46.487Z,22.45
2022-09-13T08:45:46.482Z,22.42
2022-09-13T08:46:46.454Z,22.47
2022-09-13T08:47:46.452Z,22.58
2022-09-13T08:48:46.436Z,22.65
2022-09-13T08:49:46.426Z,22.65
2022-09-13T08:50:46.415Z,22.60
2022-09-13T08:51:46.404Z,22.52
2022-09-13T08:52:46.398Z,22.49
2022-09-13T08:53:46.413Z,22.52
2022-09-13T08:54:46.367Z,22.60
2022-09-13T08:55:46.378Z,22.67
2022-09-13T08:56:46.353Z,22.75
2022-09-13T08:57:46.343Z,22.83
2022-09-13T08:58:46.355Z,22.91
2022-09-13T08:59:46.313Z,23.01
2022-09-13T09:00:46.349Z,23.13
2022-09-13T09:01:46.368Z,23.32
2022-09-13T09:02:46.310Z,23.43
2022-09-13T09:03:46.330Z,23.50
2022-09-13T09:04:46.269Z,23.57
2022-09-13T09:05:46.284Z,23.60
2022-09-13T09:06:46.244Z,23.60
2022-09-13T09:07:46.235Z,23.57
2022-09-13T09:08:46.223Z,23.47
2022-09-13T09:09:46.214Z,23.36
2022-09-13T09:10:46.208Z,23.17
2022-09-13T09:11:46.215Z,23.02
2022-09-13T09:12:46.177Z,22.92
2022-09-13T09:13:46.194Z,22.82
2022-09-13T09:14:46.157Z,22.73
2022-09-13T09:15:46.219Z,22.72
2022-09-13T09:16:46.149Z,22.70
2022-09-13T09:17:46.132Z,22.73
2022-09-13T09:18:46.119Z,22.67
2022-09-13T09:19:46.112Z,22.61
2022-09-13T09:20:46.102Z,22.64
2022-09-13T09:21:46.112Z,22.75
2022-09-13T09:22:46.080Z,22.80
2022-09-13T09:23:46.102Z,22.94
2022-09-13T09:24:46.053Z,23.01
2022-09-13T09:25:46.055Z,23.07
2022-09-13T09:26:46.055Z,23.10
2022-09-13T09:27:46.030Z,23.15
2022-09-13T09:28:46.015Z,23.07
2022-09-13T09:29:46.007Z,23.07
2022-09-13T09:30:46.017Z,23.25
2022-09-13T09:31:46.016Z,23.50
2022-09-13T09:32:45.978Z,23.72
2022-09-13T09:33:46.068Z,23.80
2022-09-13T09:34:45.948Z,23.80
2022-09-13T09:35:46.082Z,23.76
2022-09-13T09:36:45.939Z,23.76
2022-09-13T09:37:45.921Z,23.73
2022-09-13T09:38:45.930Z,23.69
2022-09-13T09:39:45.946Z,23.66
2022-09-13T09:40:45.891Z,23.63
2022-09-13T09:41:45.892Z,23.58
2022-09-13T09:42:45.875Z,23.55
2022-09-13T09:43:45.904Z,23.53
2022-09-13T09:44:45.853Z,23.53
2022-09-13T09:45:45.870Z,23.51
2022-09-13T09:46:45.844Z,23.53
2022-09-13T09:47:45.831Z,23.57
2022-09-13T09:48:45.815Z,23.57
2022-09-13T09:49:45.960Z,23.63
2022-09-13T09:50:45.832Z,23.70
2022-09-13T09:51:45.846Z,23.73
2022-09-13T09:52:45.770Z,23.72
2022-09-13T09:53:45.758Z,23.75
2022-09-13T09:54:45.749Z,23.80
2022-09-13T09:55:45.738Z,23.84
2022-09-13T09:56:45.770Z,23.87
2022-09-13T09:57:45.741Z,23.98
2022-09-13T09:58:45.740Z,24.15
2022-09-13T09:59:45.699Z,24.28
2022-09-13T10:00:45.688Z,24.34
2022-09-13T10:01:45.707Z,24.35
2022-09-13T10:02:45.694Z,24.40
2022-09-13T10:03:45.863Z,24.46
2022-09-13T10:04:45.643Z,24.46
2022-09-13T10:05:45.638Z,24.46
2022-09-13T10:06:45.637Z,24.55
2022-09-13T10:07:45.614Z,24.61
2022-09-13T10:08:45.606Z,24.60
2022-09-13T10:09:45.598Z,24.52
2022-09-13T10:10:45.588Z,24.50
2022-09-13T10:11:45.808Z,24.55
2022-09-13T10:12:45.557Z,24.57
2022-09-13T10:13:45.572Z,24.58
2022-09-13T10:14:45.549Z,24.53
2022-09-13T10:15:45.529Z,24.49
2022-09-13T10:16:45.553Z,24.50
2022-09-13T10:17:45.511Z,24.53
2022-09-13T10:18:46.456Z,24.50
2022-09-13T10:19:45.671Z,24.52
2022-09-13T10:20:45.514Z,24.58
2022-09-13T10:21:45.542Z,24.60
2022-09-13T10:22:45.504Z,24.52
2022-09-13T10:23:45.472Z,24.46
2022-09-13T10:24:45.503Z,24.46
2022-09-13T10:25:47.963Z,24.42
2022-09-13T10:26:45.425Z,24.42
2022-09-13T10:27:45.575Z,24.47
2022-09-13T10:28:45.438Z,24.61
2022-09-13T10:29:45.588Z,24.71
2022-09-13T10:30:45.426Z,24.77
2022-09-13T10:31:45.379Z,24.84
2022-09-13T10:32:45.387Z,24.96
2022-09-13T10:33:45.349Z,25.05
2022-09-13T10:34:45.349Z,25.06
2022-09-13T10:35:45.331Z,25.10
2022-09-13T10:36:53.524Z,25.18
2022-09-13T10:37:46.330Z,25.14
2022-09-13T10:38:46.264Z,25.09
2022-09-13T10:39:45.348Z,25.13
2022-09-13T10:40:45.284Z,25.20
2022-09-13T10:41:45.293Z,25.27
2022-09-13T10:42:45.283Z,25.32
2022-09-13T10:43:45.254Z,25.27
2022-09-13T10:44:45.254Z,25.23
2022-09-13T10:45:45.258Z,25.23
2022-09-13T10:46:45.247Z,25.21
2022-09-13T10:47:45.236Z,25.14
2022-09-13T10:48:45.291Z,25.08
2022-09-13T10:49:45.195Z,25.05
2022-09-13T10:50:45.188Z,25.15
2022-09-13T10:51:45.168Z,25.24
2022-09-13T10:52:45.180Z,25.43
2022-09-13T10:53:45.150Z,25.54
2022-09-13T10:54:45.148Z,25.70
2022-09-13T10:55:45.140Z,25.79
2022-09-13T10:56:45.131Z,25.79
2022-09-13T10:57:45.124Z,25.82
2022-09-13T10:58:45.145Z,25.92
2022-09-13T10:59:45.093Z,26.07
2022-09-13T11:00:45.146Z,26.28
2022-09-13T11:01:45.121Z,26.25
2022-09-13T11:02:45.094Z,26.09
2022-09-13T11:03:45.089Z,26.05
2022-09-13T11:04:45.055Z,26.21
2022-09-13T11:05:45.037Z,26.36
2022-09-13T11:06:45.030Z,26.45
2022-09-13T11:07:45.021Z,26.50
2022-09-13T11:08:45.026Z,26.39
2022-09-13T11:09:45.009Z,26.20
2022-09-13T11:10:45.020Z,26.12
2022-09-13T11:11:44.971Z,26.25
2022-09-13T11:12:44.969Z,26.17
2022-09-13T11:13:45.220Z,25.99
2022-09-13T11:14:44.951Z,25.87
2022-09-13T11:15:44.940Z,25.76
2022-09-13T11:16:44.996Z,25.82
2022-09-13T11:17:44.913Z,25.99
2022-09-13T11:18:44.929Z,26.15
2022-09-13T11:19:44.893Z,26.26
2022-09-13T11:20:44.892Z,26.26
2022-09-13T11:21:44.875Z,26.25
2022-09-13T11:22:44.874Z,26.21
2022-09-13T11:23:44.869Z,26.29
2022-09-13T11:24:44.848Z,26.33
2022-09-13T11:25:44.836Z,26.30
2022-09-13T11:26:44.876Z,26.30
2022-09-13T11:27:44.809Z,26.40
2022-09-13T11:28:44.818Z,26.52
2022-09-13T11:29:44.798Z,26.54
2022-09-13T11:30:44.789Z,26.45
2022-09-13T11:31:44.824Z,26.45
2022-09-13T11:32:44.801Z,26.52
2022-09-13T11:33:44.801Z,26.85
2022-09-13T11:34:44.770Z,27.22
2022-09-13T11:35:44.746Z,27.66
2022-09-13T11:36:44.732Z,27.79
2022-09-13T11:37:44.722Z,27.88
2022-09-13T11:38:44.733Z,27.69
2022-09-13T11:39:44.736Z,27.49
2022-09-13T11:40:44.697Z,27.39
2022-09-13T11:41:44.686Z,27.63
2022-09-13T11:42:44.690Z,27.84
2022-09-13T11:43:44.780Z,27.51
2022-09-13T11:44:44.664Z,27.22
2022-09-13T11:45:44.682Z,27.13
2022-09-13T11:46:44.647Z,27.24
2022-09-13T11:47:44.637Z,27.57
2022-09-13T11:48:44.639Z,27.69
2022-09-13T11:49:44.608Z,27.67
2022-09-13T11:50:44.611Z,27.51
2022-09-13T11:51:44.588Z,27.43
2022-09-13T11:52:44.591Z,27.34
2022-09-13T11:53:44.579Z,27.21
2022-09-13T11:54:44.581Z,26.94
2022-09-13T11:55:44.559Z,26.72
2022-09-13T11:56:44.551Z,26.72
2022-09-13T11:57:44.531Z,27.12
2022-09-13T11:58:44.542Z,27.44
2022-09-13T11:59:44.531Z,27.57
2022-09-13T12:00:44.513Z,27.49
2022-09-13T12:01:44.503Z,27.57
2022-09-13T12:02:44.715Z,27.79
2022-09-13T12:03:44.495Z,27.93
2022-09-13T12:04:51.204Z,27.84
2022-09-13T12:05:45.466Z,27.75
2022-09-13T12:06:44.456Z,27.72
2022-09-13T12:07:44.447Z,27.77
2022-09-13T12:08:44.447Z,27.77
2022-09-13T12:09:44.435Z,27.75
2022-09-13T12:10:44.417Z,27.77
2022-09-13T12:11:44.417Z,27.81
2022-09-13T12:12:44.401Z,27.88
2022-09-13T12:13:44.409Z,28.02
2022-09-13T12:14:44.604Z,28.07
2022-09-13T12:15:44.551Z,28.02
2022-09-13T12:16:44.399Z,27.70
2022-09-13T12:17:44.364Z,27.46
2022-09-13T12:18:44.351Z,27.39
2022-09-13T12:19:44.342Z,27.49
2022-09-13T12:20:44.401Z,27.66
2022-09-13T12:21:44.318Z,27.90
2022-09-13T12:22:44.304Z,28.03
2022-09-13T12:23:44.327Z,28.04
2022-09-13T12:24:44.295Z,27.88
2022-09-13T12:25:44.284Z,27.75
2022-09-13T12:26:44.266Z,27.79
2022-09-13T12:27:44.265Z,27.88
2022-09-13T12:28:44.466Z,28.06
2022-09-13T12:29:44.246Z,28.14
2022-09-13T12:30:44.232Z,28.06
2022-09-13T12:31:44.315Z,27.92
2022-09-13T12:32:44.209Z,27.94
2022-09-13T12:33:44.212Z,27.79
2022-09-13T12:34:44.207Z,27.63
2022-09-13T12:35:44.190Z,27.44
2022-09-13T12:36:44.280Z,27.29
2022-09-13T12:37:44.230Z,27.22
2022-09-13T12:38:44.163Z,27.24
2022-09-13T12:39:44.196Z,27.27
2022-09-13T12:40:44.181Z,27.34
2022-09-13T12:41:44.123Z,27.43
2022-09-13T12:42:44.114Z,27.77
2022-09-13T12:43:44.103Z,27.84
2022-09-13T12:44:44.117Z,27.77
2022-09-13T12:45:44.145Z,27.74
2022-09-13T12:46:44.154Z,27.78
2022-09-13T12:47:44.075Z,27.81
2022-09-13T12:48:44.065Z,27.69
2022-09-13T12:49:44.056Z,27.46
2022-09-13T12:50:44.742Z,27.44
2022-09-13T12:51:44.046Z,27.55
2022-09-13T12:52:44.028Z,27.72